Latest Weather Observations for Miles

IDQ60801

Issued at 11:32 am EST Tuesday 23 December 2014 (issued every 30 minutes, with the page automatically refreshed every 10 minutes)

About weather observations | Map of weather stations | Latest weather observations for QLD | Other Formats
Station Details ID: 042112 Name: MILES CONSTANCE STREET Lat: -26.66 Lon: 150.18 Height: 304.8 m
Data from the previous 72 hours. | See also: Recent months at Miles
Date/Time
EST
Temp
°C
App
Temp
°C
Dew
Point
Rel
Hum
%
Delta-T
°C
Wind Press
QNH
hPa
Press
MSL
hPa
Rain
since 9 am
mm
Dir
 
Spd
km/h
Gust
km/h
Spd
kts
Gust
kts
23/11:30am 28.0 28.0 13.5 41 8.7 SSW 6 9 3 5 1016.3 - 0.0
23/11:00am 27.1 26.4 13.1 42 8.3 ENE 9 13 5 7 1016.8 - 0.0
23/10:30am 26.7 25.9 12.8 42 8.2 ENE 9 17 5 9 1016.9 - 0.0
23/10:00am 25.9 24.6 12.6 43 7.8 NE 11 17 6 9 1017.0 - 0.0
23/09:30am 25.3 24.8 13.9 49 6.8 N 9 15 5 8 1017.5 - 0.0
23/09:00am 24.5 23.4 13.1 49 6.7 NNE 11 17 6 9 1017.2 1015.5 0.0
23/08:30am 23.4 22.7 14.3 56 5.4 NNE 11 17 6 9 1017.5 - 0.0
23/08:00am 22.6 22.1 14.9 61 4.6 NNE 11 17 6 9 1017.6 - 0.0
23/07:30am 21.6 21.2 15.1 66 3.9 NNE 11 15 6 8 1017.7 - 0.0
23/07:00am 21.0 20.2 15.2 69 3.5 NNE 13 19 7 10 1017.7 - 0.0
23/06:30am 19.8 20.2 15.3 75 2.7 NNE 7 13 4 7 1017.7 - 0.0
23/06:00am 18.9 18.7 14.8 77 2.4 NNE 9 13 5 7 1017.1 1015.4 0.0
23/05:30am 18.2 18.3 14.4 78 2.2 NNE 7 11 4 6 1016.8 - 0.0
23/05:00am 18.3 18.3 14.2 77 2.4 NNE 7 13 4 7 1016.4 - 0.0
23/04:30am 18.6 17.8 14.1 75 2.6 NNE 11 15 6 8 1016.1 - 0.0
23/04:00am 18.9 18.9 14.1 73 2.8 NE 7 13 4 7 1016.0 - 0.0
23/03:30am 19.3 19.0 14.4 73 2.9 NE 9 15 5 8 1016.1 - 0.0
23/03:00am 19.7 19.4 14.4 71 3.1 NE 9 13 5 7 1015.9 1014.2 0.0
23/02:30am 20.2 19.8 14.2 68 3.5 NE 9 15 5 8 1015.8 - 0.0
23/02:00am 20.6 20.4 14.7 69 3.5 NE 9 15 5 8 1016.0 - 0.0
23/01:30am 21.0 20.5 14.8 67 3.7 NE 11 15 6 8 1016.2 - 0.0
23/01:00am 21.5 21.4 15.0 66 3.9 NNE 9 15 5 8 1016.3 - 0.0
23/12:30am 21.6 21.8 15.7 69 3.6 NNE 9 15 5 8 1016.4 - 0.0
23/12:00am 22.1 22.7 15.7 67 3.9 NNE 7 15 4 8 1016.1 1014.4 0.0
 
Date/Time
EST
Temp
°C
App
Temp
°C
Dew
Point
Rel
Hum
%
Delta-T
°C
Wind Press
QNH
hPa
Press
MSL
hPa
Rain
since 9 am
mm
Dir
 
Spd
km/h
Gust
km/h
Spd
kts
Gust
kts
22/11:30pm 22.7 22.8 15.6 64 4.3 NNE 9 15 5 8 1016.2 - 0.0
22/11:00pm 23.5 23.5 15.2 59 5.0 NE 9 13 5 7 1016.2 - 0.0
22/10:30pm 24.1 23.7 15.2 57 5.4 NNE 11 15 6 8 1016.0 - 0.0
22/10:00pm 24.9 24.1 15.2 54 5.9 NE 13 22 7 12 1015.8 - 0.0
22/09:30pm 25.1 25.2 15.6 55 5.8 NE 9 17 5 9 1015.7 - 0.0
22/09:00pm 23.7 27.0 19.0 75 3.0 CALM 0 0 0 0 1015.5 1013.8 0.0
22/08:30pm 24.9 26.6 18.0 65 4.4 N 6 7 3 4 1015.2 - 0.0
22/08:00pm 25.9 27.5 17.9 61 5.1 NNE 6 7 3 4 1015.1 - 0.0
22/07:30pm 25.9 28.9 19.3 67 4.3 NE 2 6 1 3 1014.9 - 0.0
22/07:00pm 28.1 29.0 16.1 48 7.5 ENE 6 9 3 5 1014.6 - 0.0
22/06:30pm 29.1 28.9 14.8 41 8.8 NE 9 13 5 7 1014.3 - 0.0
22/06:00pm 29.9 29.4 15.0 40 9.2 E 11 15 6 8 1014.1 1012.3 0.0
22/05:30pm 29.9 29.4 15.0 40 9.2 NE 11 19 6 10 1013.8 - 0.0
22/05:00pm 30.3 29.8 14.8 39 9.6 ENE 11 17 6 9 1013.5 - 0.0
22/04:30pm 30.4 29.2 14.0 36 10.0 E 13 20 7 11 1013.4 - 0.0
22/04:00pm 30.2 30.4 15.7 41 9.1 ENE 9 17 5 9 1013.7 - 0.0
22/03:30pm 30.1 29.7 15.3 40 9.2 E 11 20 6 11 1014.0 - 0.0
22/03:00pm 29.9 30.9 16.8 45 8.3 ENE 7 17 4 9 1014.4 1012.6 0.0
22/02:30pm 29.7 29.5 16.8 45 8.2 NNE 13 20 7 11 1014.7 - 0.0
22/02:00pm 29.8 30.2 17.3 47 8.0 NNE 11 20 6 11 1015.0 - 0.0
22/01:30pm 29.4 29.9 17.4 48 7.7 NE 11 19 6 10 1015.5 - 0.0
22/01:00pm 28.8 29.2 17.2 49 7.4 ENE 11 15 6 8 1016.1 - 0.0
22/12:30pm 28.4 29.1 18.0 53 6.7 N 11 15 6 8 1016.6 - 0.0
22/12:00pm 28.2 29.9 18.6 56 6.2 N 7 13 4 7 1017.2 1015.5 0.0
22/11:30am 27.1 28.2 17.1 54 6.3 NE 7 17 4 9 1017.9 - 0.0
22/11:00am 27.2 28.5 18.5 59 5.6 NE 9 13 5 7 1018.2 - 0.0
22/10:30am 25.5 26.5 17.8 62 4.9 NNE 9 13 5 7 1018.6 - 0.0
22/10:00am 25.2 26.0 17.4 62 4.9 NNE 9 15 5 8 1018.6 - 0.0
22/09:30am 24.0 25.1 18.0 69 3.8 N 9 15 5 8 1018.5 - 0.0
22/09:00am 23.3 23.3 17.2 68 3.8 NNE 13 19 7 10 1018.6 1016.9 20.4
22/08:30am 23.5 22.8 17.4 68 3.8 NE 17 26 9 14 1018.4 - 20.4
22/08:00am 22.6 22.7 17.5 73 3.2 NNE 13 19 7 10 1018.6 - 20.4
22/07:30am 22.2 22.3 17.4 74 3.0 NE 13 19 7 10 1018.4 - 20.4
22/07:00am 21.8 22.6 18.2 80 2.3 NNE 11 24 6 13 1017.9 - 20.4
22/06:30am 20.4 20.7 17.8 85 1.6 NNE 13 20 7 11 1017.7 - 20.4
22/06:00am 19.6 20.6 17.8 89 1.1 NE 9 13 5 7 1017.4 1015.6 20.4
22/05:30am 18.9 20.4 17.6 92 0.8 N 6 7 3 4 1017.2 - 20.4
22/05:00am 19.0 20.2 17.4 90 1.0 NNE 7 9 4 5 1016.7 - 20.4
22/04:30am 19.2 20.4 17.3 89 1.2 NE 7 13 4 7 1016.3 - 20.4
22/04:00am 19.5 20.2 17.1 86 1.5 NNE 9 13 5 7 1016.0 - 20.4
22/03:30am 19.6 20.0 17.2 86 1.5 NNE 11 20 6 11 1015.6 - 20.4
22/03:00am 19.8 20.3 17.4 86 1.5 NNE 11 17 6 9 1015.6 1013.9 20.4
22/02:30am 19.5 19.4 16.9 85 1.6 NE 13 19 7 10 1015.6 - 20.4
22/02:00am 19.2 19.8 17.6 90 1.0 NE 11 19 6 10 1015.7 - 20.4
22/01:30am 18.9 19.7 17.4 91 0.9 NNE 9 13 5 7 1015.7 - 20.4
22/01:00am 18.9 18.9 17.3 90 1.0 N 13 19 7 10 1015.4 - 20.4
22/12:30am 18.9 18.9 17.1 89 1.1 N 13 22 7 12 1015.2 - 20.4
22/12:00am 19.3 19.9 17.7 90 1.0 N 11 17 6 9 1015.7 1014.0 20.4
 
Date/Time
EST
Temp
°C
App
Temp
°C
Dew
Point
Rel
Hum
%
Delta-T
°C
Wind Press
QNH
hPa
Press
MSL
hPa
Rain
since 9 am
mm
Dir
 
Spd
km/h
Gust
km/h
Spd
kts
Gust
kts
21/11:30pm 19.4 20.0 17.8 90 1.0 N 11 13 6 7 1016.2 - 20.4
21/11:00pm 19.5 19.5 18.1 92 0.9 NE 15 20 8 11 1016.9 - 20.4
21/10:30pm 19.5 19.4 17.9 90 1.0 NE 15 20 8 11 1017.4 - 20.4
21/10:00pm 18.8 20.6 18.3 97 0.3 N 6 9 3 5 1018.2 - 20.4
21/09:30pm 19.2 19.8 17.7 91 0.9 E 11 17 6 9 1018.1 - 20.4
21/09:00pm 19.1 19.1 18.1 94 0.6 N 15 26 8 14 1016.5 1014.8 20.2
21/08:30pm 18.7 19.8 17.9 95 0.5 NNE 9 17 5 9 1016.4 - 19.4
21/08:01pm 18.6 15.2 17.8 95 0.5 S 32 54 17 29 1018.3 - 17.2
21/08:00pm 18.5 15.0 17.9 96 0.4 S 33 61 18 33 1018.3 - 17.2
21/07:54pm 17.9 13.9 17.7 99 0.1 S 35 70 19 38 1018.0 - 15.4
21/07:37pm 18.4 10.4 17.6 95 0.5 SSW 56 74 30 40 1016.5 - 0.8
21/07:30pm 21.0 17.2 16.6 76 2.7 SW 32 54 17 29 1016.7 - 0.0
21/07:27pm 25.8 22.6 16.3 55 5.9 SW 28 54 15 29 1017.0 - 0.0
21/07:26pm 28.2 26.2 17.4 52 6.9 SW 24 39 13 21 1016.7 - 0.0
21/07:00pm 28.8 29.2 17.2 49 7.4 NE 11 15 6 8 1014.2 - 0.0
21/06:30pm 29.3 29.9 16.7 46 8.0 ENE 9 13 5 7 1014.1 - 0.0
21/06:00pm 29.6 29.6 16.3 44 8.4 NNE 11 15 6 8 1013.4 1011.7 0.0
21/05:30pm 30.5 30.1 15.2 39 9.5 NNE 11 15 6 8 1013.1 - 0.0
21/05:00pm 31.5 31.0 15.8 38 9.9 N 13 20 7 11 1012.8 - 0.0
21/04:30pm 30.9 31.4 16.6 42 9.1 NNE 9 13 5 7 1013.0 - 0.0
21/04:00pm 30.6 31.0 16.4 42 9.0 N 9 15 5 8 1013.2 - 0.0
21/03:30pm 31.3 31.2 16.1 40 9.6 N 11 19 6 10 1013.4 - 0.0
21/03:00pm 31.4 31.8 16.4 40 9.5 NNW 9 17 5 9 1014.0 1012.2 0.0
21/02:30pm 31.2 30.7 16.0 40 9.6 NNW 13 24 7 13 1014.6 - 0.0
21/02:00pm 30.3 30.8 16.6 43 8.7 NNW 9 17 5 9 1015.1 - 0.0
21/01:30pm 31.2 30.8 16.2 40 9.5 N 13 20 7 11 1015.3 - 0.0
21/01:00pm 31.6 31.7 17.5 43 9.1 N 13 20 7 11 1015.7 - 0.0
21/12:30pm 30.0 30.0 17.2 46 8.2 N 13 20 7 11 1016.2 - 0.0
21/12:00pm 28.5 27.6 16.8 49 7.4 NNE 17 28 9 15 1016.7 1015.0 0.0
21/11:30am 28.9 29.2 17.8 51 7.1 N 13 24 7 13 1017.1 - 0.0
21/11:00am 28.6 28.2 18.0 52 6.8 N 17 30 9 16 1017.6 - 0.0
21/10:30am 27.4 27.3 17.9 56 6.1 N 15 26 8 14 1018.0 - 0.0
21/10:00am 26.7 26.1 17.6 57 5.8 NNE 17 30 9 16 1018.0 - 0.0
21/09:30am 26.9 26.6 18.2 59 5.6 N 17 24 9 13 1018.0 - 0.0
21/09:00am 25.7 25.4 18.2 63 4.8 NNE 17 22 9 12 1018.1 1016.4 0.0
21/08:30am 25.4 25.2 18.4 65 4.5 NNE 17 24 9 13 1018.2 - 0.0
21/08:00am 24.2 24.8 18.7 71 3.5 N 13 22 7 12 1018.2 - 0.0
21/07:30am 24.0 23.2 18.0 69 3.8 NNE 19 32 10 17 1018.1 - 0.0
21/07:00am 23.7 24.7 18.7 73 3.2 N 11 17 6 9 1017.8 - 0.0
21/06:30am 23.0 23.5 18.4 75 2.9 NNE 13 20 7 11 1017.4 - 0.0
21/06:00am 22.8 24.2 18.6 77 2.7 NNE 9 15 5 8 1016.8 1015.1 0.0
21/05:30am 22.5 23.8 18.4 77 2.6 NNE 9 15 5 8 1016.5 - 0.0
21/05:00am 22.4 23.8 18.6 79 2.4 N 9 15 5 8 1016.1 - 0.0
21/04:30am 22.3 23.2 18.4 78 2.5 NNE 11 17 6 9 1015.5 - 0.0
21/04:00am 22.1 23.8 18.5 80 2.3 NNE 7 13 4 7 1015.0 - 0.0
21/03:30am 22.1 23.0 18.3 79 2.4 NNE 11 17 6 9 1014.8 - 0.0
21/03:00am 22.3 23.2 18.5 79 2.4 NNE 11 20 6 11 1014.7 1012.9 0.0
21/02:30am 22.5 23.1 18.6 78 2.5 NNE 13 20 7 11 1014.6 - 0.0
21/02:00am 22.6 22.9 18.7 78 2.5 NE 15 22 8 12 1014.4 - 0.0
21/01:30am 23.0 22.9 18.8 77 2.7 NE 17 28 9 15 1014.6 - 0.0
21/01:00am 23.4 23.4 18.9 76 2.9 NE 17 32 9 17 1014.6 - 0.0
21/12:30am 23.9 23.7 18.4 71 3.5 NNE 17 33 9 18 1014.7 - 0.0
21/12:00am 24.2 24.5 18.7 71 3.5 NNE 15 28 8 15 1014.8 1013.0 0.0
 
Date/Time
EST
Temp
°C
App
Temp
°C
Dew
Point
Rel
Hum
%
Delta-T
°C
Wind Press
QNH
hPa
Press
MSL
hPa
Rain
since 9 am
mm
Dir
 
Spd
km/h
Gust
km/h
Spd
kts
Gust
kts
20/11:30pm 24.3 25.0 18.9 72 3.5 ENE 13 22 7 12 1014.7 - 0.0
20/11:00pm 25.5 25.3 17.6 61 5.0 NE 15 30 8 16 1014.4 - 0.0
20/10:30pm 26.2 24.8 16.6 55 6.0 NE 19 30 10 16 1014.3 - 0.0
20/10:00pm 26.5 26.0 15.8 51 6.6 NE 13 20 7 11 1014.3 - 0.0
20/09:30pm 25.8 25.9 15.6 53 6.3 N 9 15 5 8 1013.8 - 0.0
20/09:00pm 24.6 25.9 17.6 65 4.4 NNE 7 9 4 5 1013.5 1011.8 0.0
20/08:30pm 24.0 26.3 19.4 75 3.0 N 6 6 3 3 1013.2 - 0.0
20/08:00pm 24.8 27.1 19.4 72 3.5 N 6 7 3 4 1012.9 - 0.0
20/07:30pm 26.2 27.9 18.1 61 5.2 N 6 7 3 4 1012.7 - 0.0
20/07:00pm 26.7 28.8 19.0 62 5.0 N 6 7 3 4 1012.4 - 0.0
20/06:30pm 28.7 31.1 18.9 55 6.4 N 4 7 2 4 1012.2 - 0.0
20/06:00pm 29.5 30.7 16.9 46 8.0 N 6 7 3 4 1011.9 1010.1 0.0
20/05:30pm 30.2 32.1 17.6 46 8.1 N 4 7 2 4 1011.5 - 0.0
20/05:00pm 30.6 30.8 14.8 38 9.8 N 7 13 4 7 1011.3 - 0.0
20/04:30pm 31.0 31.4 15.3 38 9.8 N 7 11 4 6 1011.2 - 0.0
20/04:00pm 31.4 31.0 14.2 35 10.6 N 9 15 5 8 1011.1 - 0.0
20/03:30pm 31.5 30.3 14.1 34 10.7 N 13 20 7 11 1011.4 - 0.0
20/03:00pm 32.2 31.0 12.9 31 11.7 N 11 17 6 9 1011.7 1009.9 0.0
20/02:30pm 33.7 32.8 13.7 30 12.3 N 11 19 6 10 1012.0 - 0.0
20/02:00pm 32.7 31.8 13.6 31 11.7 NNW 11 17 6 9 1012.3 - 0.0
20/01:30pm 31.5 30.7 13.9 34 10.8 NNW 11 20 6 11 1012.6 - 0.0
20/01:00pm 32.2 32.2 15.3 36 10.6 N 9 20 5 11 1013.0 - 0.0
20/12:30pm 31.1 30.6 13.9 35 10.5 NNE 9 15 5 8 1013.4 - 0.0
20/12:00pm 31.5 30.6 12.7 31 11.3 ENE 9 19 5 10 1014.0 1012.2 0.0

Other Formats:

Comma delimited format used in spreadsheet applications
http://www.bom.gov.au/fwo/IDQ60801/IDQ60801.95529.axf

JavaScript Object Notation format (JSON) in row-major order
http://www.bom.gov.au/fwo/IDQ60801/IDQ60801.95529.json